logo
Search for airport 
image banner adimage banner adimage banner ad
image banner ad

ENDU - Bardufoss

Located in Bardufoss, Norway

ICAO - ENDU, IATA - BDU

Data provided by Airmate  

General information

Coordinates: N69°3'21" E18°32'25"
Elevation is 254 feet MSL.
Magnetic variation is 9.1° East
View others Airports in Troms

Operational data

Special qualification required
Current time UTC:
Current local time:
Weather
METAR: ENDU 170450Z VRB01KT CAVOK M04/M08 Q1013 NOSIG RMK WIND 1100FT 08004KT WIND 2200FT 14011KT
TAF: TAF ENDU 162300Z 1700/1724 10005KT 9999 FEW040
View NOTAMs / SUP AIP / TFR affecting this airport [VIEW]
Communications frequencies: [VIEW]

Runways:

RWY identifierQFULength (ft)Width (ft)SurfaceLDA (ft)
10109°8015148ASP
28289°8015148ASP

Airport contact information

Address: Bardufoss Norway

Other aviation service providers

Flight schools

University Of Tromsø School Of Aviation Ato

University Of Tromsø School Of Aviation Ato

Aviation club (not for profit)

Bardufoss Flyklubb

Bardufoss Flyklubb

Satellite view of ENDU